Time;durP1;ratioP1;P1;durP2;ratioP2;P2;SDS_P1;SDS_P2;PMS_P1;PMS_P2;Temp;Humidity;BMP_temperature;BMP_pressure;BME280_temperature;BME280_humidity;BME280_pressure;Samples;Min_cycle;Max_cycle;Signal;HPM_P1;HPM_P2
2022/06/09 04:00:57;;;;;;;6.10;5.80;;;15.90;99.90;;;;;;5622651;23;20497;-69
2022/06/09 04:03:24;;;;;;;6.43;5.97;;;15.90;99.90;;;;;;4921491;29;20474;-69
2022/06/09 04:05:50;;;;;;;5.70;5.30;;;15.90;99.90;;;;;;4942015;28;20852;-69
2022/06/09 04:08:17;;;;;;;6.00;5.60;;;15.90;99.90;;;;;;4942178;29;20502;-69
2022/06/09 04:10:44;;;;;;;6.97;6.47;;;16.00;99.90;;;;;;4936556;28;20987;-69
2022/06/09 04:13:10;;;;;;;6.87;6.37;;;16.00;99.90;;;;;;4946053;28;20476;-69
2022/06/09 04:15:38;;;;;;;7.47;6.90;;;16.00;99.90;;;;;;4961840;23;20806;-70
2022/06/09 04:18:07;;;;;;;7.47;6.80;;;16.00;99.90;;;;;;4912061;29;21161;-71
2022/06/09 04:20:34;;;;;;;7.17;6.67;;;16.00;99.90;;;;;;4923438;29;20476;-70
2022/06/09 04:23:00;;;;;;;7.33;6.83;;;16.00;99.90;;;;;;4923534;29;20512;-71
2022/06/09 04:25:28;;;;;;;7.23;6.73;;;16.10;99.90;;;;;;4924453;29;20470;-71
2022/06/09 04:27:55;;;;;;;8.20;7.53;;;16.10;99.90;;;;;;4925102;29;20549;-71
2022/06/09 04:30:23;;;;;;;7.83;7.17;;;16.10;99.90;;;;;;4931918;29;20489;-71
2022/06/09 04:32:50;;;;;;;8.13;7.40;;;16.10;99.90;;;;;;4924037;29;20472;-70
2022/06/09 04:35:18;;;;;;;8.70;8.00;;;16.10;99.90;;;;;;4934006;29;20453;-71
2022/06/09 04:38:03;;;;;;;9.60;8.57;;;16.20;99.90;;;;;;4923104;29;20967;-71
2022/06/09 04:40:35;;;;;;;9.23;8.43;;;16.20;99.90;;;;;;4931114;29;20561;-70
2022/06/09 04:43:03;;;;;;;9.10;8.00;;;16.20;99.90;;;;;;4924840;29;20500;-71
2022/06/09 04:45:30;;;;;;;9.07;8.17;;;16.30;99.90;;;;;;4929389;29;20771;-70
2022/06/09 04:47:57;;;;;;;9.30;8.50;;;16.40;99.90;;;;;;4925968;29;20475;-70
2022/06/09 04:50:26;;;;;;;10.00;8.70;;;16.40;99.90;;;;;;4923350;29;20964;-70
2022/06/09 04:52:52;;;;;;;12.47;9.87;;;16.50;99.90;;;;;;4911728;29;20462;-70
2022/06/09 04:55:19;;;;;;;10.83;9.80;;;16.50;99.90;;;;;;4916191;29;20481;-71
2022/06/09 04:57:46;;;;;;;10.13;8.53;;;16.60;99.90;;;;;;4925808;29;20552;-71
2022/06/09 05:00:15;;;;;;;11.30;9.93;;;16.60;99.90;;;;;;4926178;29;20477;-70
2022/06/09 05:02:42;;;;;;;12.07;10.30;;;16.60;99.90;;;;;;4929856;29;20496;-72
2022/06/09 05:05:16;;;;;;;10.67;9.63;;;16.70;99.90;;;;;;4923731;29;20546;-71
2022/06/09 05:07:44;;;;;;;11.10;9.97;;;16.70;99.90;;;;;;4921554;29;20470;-71
2022/06/09 05:10:10;;;;;;;12.83;10.67;;;16.70;99.90;;;;;;4922877;29;20496;-72
2022/06/09 05:12:37;;;;;;;13.60;10.40;;;16.70;99.90;;;;;;4920256;29;20474;-71
2022/06/09 05:15:05;;;;;;;13.40;10.70;;;16.70;99.90;;;;;;4924001;29;20463;-70
2022/06/09 05:17:32;;;;;;;12.50;11.17;;;16.70;99.90;;;;;;4932783;29;21029;-71
2022/06/09 05:19:58;;;;;;;14.23;12.80;;;16.60;99.90;;;;;;4915402;29;20470;-71
2022/06/09 05:22:25;;;;;;;12.23;10.90;;;16.70;99.90;;;;;;4919780;29;20517;-70
2022/06/09 05:24:57;;;;;;;15.50;11.97;;;16.70;99.90;;;;;;4919755;29;20469;-71
2022/06/09 05:27:24;;;;;;;12.43;10.97;;;16.70;99.90;;;;;;4927097;29;20500;-70
2022/06/09 05:29:51;;;;;;;12.70;11.37;;;16.80;99.90;;;;;;4924725;29;21342;-70
2022/06/09 05:32:18;;;;;;;11.87;10.67;;;16.80;99.90;;;;;;4924390;29;20462;-70
2022/06/09 05:34:45;;;;;;;15.70;13.47;;;16.80;99.90;;;;;;4903491;29;20463;-70
2022/06/09 05:37:11;;;;;;;12.53;10.93;;;16.90;99.90;;;;;;4925882;29;20490;-69
2022/06/09 05:45:08;;;;;;;13.17;11.20;;;17.10;99.90;;;;;;4922776;29;20484;-71
2022/06/09 05:47:35;;;;;;;14.40;10.77;;;17.20;99.90;;;;;;4925484;29;20541;-71
2022/06/09 05:50:02;;;;;;;13.10;10.73;;;17.30;99.90;;;;;;4916098;29;20466;-70
2022/06/09 05:52:30;;;;;;;14.27;11.77;;;17.40;99.90;;;;;;4924248;29;20458;-70
2022/06/09 05:54:58;;;;;;;13.87;11.23;;;17.50;99.90;;;;;;4924419;29;20959;-70
2022/06/09 05:57:27;;;;;;;13.17;11.30;;;17.60;99.90;;;;;;4922782;29;20927;-69
2022/06/09 05:59:54;;;;;;;13.93;12.50;;;17.60;99.90;;;;;;4923555;29;20473;-70
2022/06/09 06:02:24;;;;;;;13.27;11.87;;;17.60;99.90;;;;;;4918560;29;20497;-71
2022/06/09 06:04:52;;;;;;;17.00;13.20;;;17.60;99.90;;;;;;4924948;29;20544;-71
2022/06/09 06:07:18;;;;;;;13.43;11.30;;;17.70;99.90;;;;;;4922810;29;20517;-70
2022/06/09 06:09:45;;;;;;;13.90;12.50;;;17.70;99.90;;;;;;4923501;29;20469;-71
2022/06/09 06:12:12;;;;;;;19.00;12.30;;;17.70;99.90;;;;;;4923303;29;20463;-71
2022/06/09 06:14:41;;;;;;;15.57;12.20;;;17.80;99.90;;;;;;4934377;29;20837;-71
2022/06/09 06:17:08;;;;;;;14.70;11.40;;;17.90;99.90;;;;;;4922823;29;20544;-71
2022/06/09 06:19:34;;;;;;;15.50;11.20;;;17.90;99.90;;;;;;4917253;29;20466;-69
2022/06/09 06:22:01;;;;;;;16.33;12.47;;;18.00;99.90;;;;;;4922574;29;20914;-71
2022/06/09 06:24:28;;;;;;;13.40;11.60;;;18.00;99.90;;;;;;4917481;29;20940;-71
2022/06/09 06:26:54;;;;;;;15.53;13.67;;;18.00;99.90;;;;;;4928555;29;20482;-70
2022/06/09 06:29:23;;;;;;;13.20;11.93;;;18.00;99.90;;;;;;4922639;29;20470;-71
2022/06/09 06:31:52;;;;;;;12.93;11.63;;;18.10;99.90;;;;;;4928694;29;20496;-71
2022/06/09 06:34:19;;;;;;;14.00;11.93;;;18.10;99.90;;;;;;4928309;29;20472;-70
2022/06/09 06:36:45;;;;;;;12.37;11.23;;;18.00;99.90;;;;;;4917402;29;20482;-71
2022/06/09 06:39:12;;;;;;;16.67;12.40;;;18.00;99.90;;;;;;4922598;29;20481;-71
2022/06/09 06:41:40;;;;;;;14.00;11.40;;;17.90;99.90;;;;;;4926650;29;20488;-71
2022/06/09 06:44:07;;;;;;;13.40;12.00;;;17.80;99.90;;;;;;4928765;29;20497;-71
2022/06/09 06:46:34;;;;;;;12.77;11.50;;;17.80;99.90;;;;;;4928975;29;20580;-71
2022/06/09 06:49:02;;;;;;;13.43;10.90;;;17.80;99.90;;;;;;4930943;29;20540;-71
2022/06/09 06:51:29;;;;;;;16.60;11.67;;;17.90;99.90;;;;;;4921395;29;20490;-70
2022/06/09 06:53:56;;;;;;;12.77;11.13;;;18.10;99.90;;;;;;4922523;29;20458;-71
2022/06/09 06:56:23;;;;;;;13.43;10.73;;;18.20;99.90;;;;;;4918301;29;20490;-71
2022/06/09 06:58:49;;;;;;;16.30;11.80;;;18.40;99.90;;;;;;4924380;29;20493;-70
2022/06/09 07:01:16;;;;;;;11.17;10.00;;;18.50;99.90;;;;;;4915210;29;20470;-70
2022/06/09 07:03:43;;;;;;;10.37;9.37;;;18.70;99.90;;;;;;4928554;29;20492;-70
2022/06/09 07:06:12;;;;;;;10.13;9.10;;;18.80;99.90;;;;;;4914066;29;20509;-69
2022/06/09 07:08:38;;;;;;;13.67;9.80;;;18.90;99.90;;;;;;4916565;29;20489;-69
2022/06/09 07:11:06;;;;;;;12.93;10.33;;;18.90;99.90;;;;;;4909509;29;20494;-70
2022/06/09 07:13:36;;;;;;;10.80;9.83;;;18.80;99.90;;;;;;4922547;29;20462;-70
2022/06/09 07:16:03;;;;;;;10.90;9.80;;;18.80;99.90;;;;;;4921195;29;20501;-69
2022/06/09 07:18:30;;;;;;;11.63;10.40;;;18.70;99.90;;;;;;4921889;29;20475;-69
2022/06/09 07:20:58;;;;;;;9.87;8.90;;;18.80;99.90;;;;;;4915590;29;20577;-68
2022/06/09 07:23:27;;;;;;;8.90;8.20;;;18.80;99.90;;;;;;4919160;29;20900;-68
2022/06/09 07:25:54;;;;;;;8.80;8.00;;;18.70;99.90;;;;;;4933380;29;20489;-68
2022/06/09 07:28:21;;;;;;;8.13;7.33;;;18.70;99.90;;;;;;4915667;29;20843;-69
2022/06/09 07:30:48;;;;;;;8.43;7.60;;;18.80;99.90;;;;;;4920651;29;20476;-68
2022/06/09 07:33:15;;;;;;;8.30;7.47;;;18.80;99.90;;;;;;4915563;29;20943;-68
2022/06/09 07:35:42;;;;;;;8.83;7.77;;;18.80;99.90;;;;;;4913715;29;20899;-68
2022/06/09 07:38:12;;;;;;;8.23;7.50;;;18.90;99.90;;;;;;4911971;29;20481;-69
2022/06/09 07:40:42;;;;;;;8.40;7.60;;;19.00;99.90;;;;;;4908218;29;20486;-68
2022/06/09 07:43:09;;;;;;;8.90;8.03;;;19.00;99.90;;;;;;4920961;29;20857;-68
2022/06/09 07:45:36;;;;;;;8.00;7.30;;;19.00;99.90;;;;;;4922064;29;20493;-68
2022/06/09 07:48:04;;;;;;;8.73;7.30;;;19.10;99.90;;;;;;4913919;29;20574;-69
2022/06/09 07:50:32;;;;;;;8.40;7.63;;;19.30;99.90;;;;;;4914789;29;20466;-69
2022/06/09 07:52:59;;;;;;;7.67;7.07;;;19.40;99.90;;;;;;4913738;29;20517;-70
2022/06/09 07:55:26;;;;;;;9.20;7.73;;;19.60;99.90;;;;;;4913165;29;20987;-69
2022/06/09 07:57:54;;;;;;;8.17;7.37;;;19.80;99.90;;;;;;4912300;29;20478;-71
2022/06/09 08:00:23;;;;;;;8.07;7.47;;;19.90;99.90;;;;;;4913867;29;20497;-69
2022/06/09 08:02:50;;;;;;;11.73;7.20;;;19.90;99.90;;;;;;4911640;29;20494;-70
2022/06/09 08:05:18;;;;;;;8.77;7.97;;;19.90;99.90;;;;;;4911850;29;20474;-70
2022/06/09 08:07:45;;;;;;;8.23;7.50;;;19.90;99.90;;;;;;4914151;29;20475;-70
2022/06/09 08:10:17;;;;;;;8.23;7.53;;;20.00;99.90;;;;;;4903388;29;20569;-69
2022/06/09 08:12:44;;;;;;;9.10;8.20;;;20.30;99.90;;;;;;4905477;29;20473;-70
2022/06/09 08:15:12;;;;;;;8.67;7.97;;;20.30;99.90;;;;;;4910712;29;20541;-70
2022/06/09 08:17:39;;;;;;;8.57;7.70;;;20.60;99.90;;;;;;4913173;29;20505;-70
2022/06/09 08:20:07;;;;;;;8.20;7.50;;;20.90;99.90;;;;;;4911293;29;20538;-69
2022/06/09 08:22:34;;;;;;;7.80;7.00;;;21.00;99.90;;;;;;4912511;29;20470;-70
2022/06/09 08:25:01;;;;;;;8.13;7.43;;;21.40;99.90;;;;;;4913078;29;20474;-70
2022/06/09 08:27:27;;;;;;;8.67;7.83;;;21.60;99.90;;;;;;4914940;29;20491;-70
2022/06/09 08:29:54;;;;;;;6.53;6.20;;;21.70;99.90;;;;;;4913260;29;20846;-70
2022/06/09 08:32:22;;;;;;;7.93;7.07;;;21.80;99.90;;;;;;4913907;29;20489;-70
2022/06/09 08:34:49;;;;;;;7.47;6.83;;;21.60;99.90;;;;;;4917701;29;20958;-69
2022/06/09 08:37:15;;;;;;;7.10;6.50;;;21.40;99.90;;;;;;4923770;29;20512;-70
2022/06/09 08:39:42;;;;;;;7.40;6.73;;;21.20;99.90;;;;;;4917947;29;20555;-72
2022/06/09 08:42:23;;;;;;;9.80;8.70;;;21.10;99.90;;;;;;4915664;29;20951;-72
2022/06/09 08:44:57;;;;;;;8.70;7.93;;;20.90;99.90;;;;;;4923682;29;20517;-71
2022/06/09 08:47:34;;;;;;;9.20;8.37;;;20.80;99.90;;;;;;4921943;29;20593;-71
2022/06/09 08:50:07;;;;;;;8.97;8.20;;;20.70;99.90;;;;;;4916111;29;20974;-71
2022/06/09 08:52:49;;;;;;;8.80;8.00;;;20.60;99.90;;;;;;4917140;29;20796;-71
2022/06/09 08:55:28;;;;;;;9.73;8.87;;;20.60;99.90;;;;;;4914978;29;20490;-72
2022/06/09 08:58:03;;;;;;;9.87;8.90;;;20.70;99.90;;;;;;4916766;29;20503;-71
2022/06/09 09:00:36;;;;;;;12.33;9.27;;;20.70;99.90;;;;;;4916587;29;20563;-71
2022/06/09 09:03:10;;;;;;;8.67;7.80;;;20.70;99.90;;;;;;4914867;29;20827;-72
2022/06/09 09:05:40;;;;;;;9.60;8.40;;;20.80;99.90;;;;;;4915783;29;20498;-72
2022/06/09 09:08:09;;;;;;;10.03;8.27;;;20.80;99.90;;;;;;4914933;29;20467;-71
2022/06/09 09:10:49;;;;;;;9.70;8.70;;;20.90;99.90;;;;;;4914802;29;20475;-71
2022/06/09 09:13:32;;;;;;;9.50;8.47;;;20.90;99.90;;;;;;4919196;29;20466;-71
2022/06/09 09:16:02;;;;;;;8.30;7.60;;;20.70;99.90;;;;;;4914593;29;20867;-71
2022/06/09 09:18:38;;;;;;;9.60;8.80;;;20.50;99.90;;;;;;4919361;29;20474;-72
2022/06/09 09:21:27;;;;;;;9.43;7.87;;;20.40;99.90;;;;;;4915524;29;20465;-71
2022/06/09 09:24:04;;;;;;;9.20;8.40;;;20.50;99.90;;;;;;4914376;29;20502;-70
2022/06/09 09:26:46;;;;;;;12.43;7.37;;;20.70;99.90;;;;;;4914345;29;20880;-71
2022/06/09 09:29:19;;;;;;;7.73;7.13;;;21.00;99.90;;;;;;4916284;29;20532;-71
2022/06/09 09:31:52;;;;;;;7.27;6.63;;;21.30;99.90;;;;;;4915394;29;20478;-71
2022/06/09 09:34:24;;;;;;;7.87;5.27;;;21.40;99.90;;;;;;4914395;29;20477;-70
2022/06/09 09:36:55;;;;;;;7.43;4.60;;;21.30;99.90;;;;;;4908984;29;20500;-71
2022/06/09 09:39:30;;;;;;;6.37;5.80;;;21.50;99.90;;;;;;4912460;29;20506;-70
2022/06/09 09:42:08;;;;;;;6.20;5.80;;;21.50;99.90;;;;;;4914412;29;20788;-71
2022/06/09 09:44:35;;;;;;;5.80;5.40;;;21.40;99.90;;;;;;4913991;29;20877;-70
2022/06/09 09:47:03;;;;;;;5.53;5.23;;;21.80;99.90;;;;;;4916843;29;20556;-70
2022/06/09 09:49:35;;;;;;;6.50;6.07;;;22.00;99.90;;;;;;4918173;29;20466;-70
2022/06/09 09:52:02;;;;;;;5.97;5.53;;;22.10;99.90;;;;;;4913692;29;20489;-70
2022/06/09 09:54:32;;;;;;;5.30;5.00;;;22.20;99.90;;;;;;4915876;29;20462;-72
2022/06/09 09:57:07;;;;;;;8.10;5.50;;;22.20;99.90;;;;;;4923014;29;20490;-71
2022/06/09 09:59:44;;;;;;;6.00;5.50;;;21.90;99.90;;;;;;4916084;29;20518;-70
2022/06/09 10:08:38;;;;;;;5.50;5.00;;;21.60;99.90;;;;;;4915846;29;20530;-71
2022/06/09 10:13:58;;;;;;;5.23;4.83;;;21.60;99.90;;;;;;4908746;29;20469;-69
2022/06/09 10:16:29;;;;;;;4.90;4.70;;;21.70;99.90;;;;;;4908330;29;21007;-71
2022/06/09 10:19:01;;;;;;;5.43;5.03;;;21.90;99.90;;;;;;4910648;29;20466;-71
2022/06/09 10:21:48;;;;;;;7.00;5.23;;;22.00;99.90;;;;;;4909606;29;20538;-70
2022/06/09 10:24:20;;;;;;;4.67;4.47;;;22.00;99.90;;;;;;4903299;29;20513;-71
2022/06/09 10:26:50;;;;;;;6.33;5.70;;;22.20;99.90;;;;;;4907913;29;21014;-71
2022/06/09 10:29:24;;;;;;;5.70;5.30;;;22.20;99.90;;;;;;4904069;29;20475;-70
2022/06/09 10:31:59;;;;;;;4.90;4.60;;;22.10;99.90;;;;;;4906032;29;20471;-70
2022/06/09 10:34:38;;;;;;;4.20;4.00;;;22.20;99.90;;;;;;4908010;29;20870;-70
2022/06/09 10:37:15;;;;;;;4.77;4.43;;;22.40;99.90;;;;;;4909637;29;20861;-70
2022/06/09 10:39:47;;;;;;;4.43;4.23;;;22.50;99.90;;;;;;4920476;29;20470;-74
2022/06/09 10:42:24;;;;;;;4.33;4.07;;;22.60;99.90;;;;;;4902177;29;20539;-71
2022/06/09 10:45:12;;;;;;;3.83;3.53;;;22.60;99.90;;;;;;4916035;29;20486;-71
2022/06/09 10:56:19;;;;;;;2.90;2.90;;;22.30;99.90;;;;;;4903267;29;20577;-70
2022/06/09 10:58:53;;;;;;;4.17;2.97;;;22.20;99.90;;;;;;4907385;29;20472;-70
2022/06/09 11:01:22;;;;;;;4.07;2.83;;;22.30;99.90;;;;;;4910612;29;20467;-71
2022/06/09 11:03:51;;;;;;;4.23;3.83;;;22.60;99.90;;;;;;4900398;29;20491;-71
2022/06/09 11:06:27;;;;;;;3.30;3.20;;;22.90;99.90;;;;;;4906841;29;20558;-70
2022/06/09 11:09:07;;;;;;;2.97;2.87;;;23.20;99.90;;;;;;4910938;29;20477;-69
2022/06/09 11:11:45;;;;;;;3.20;3.00;;;23.30;99.90;;;;;;4905204;29;20583;-71
2022/06/09 11:14:26;;;;;;;2.73;2.63;;;23.30;99.90;;;;;;4908670;29;20523;-70
2022/06/09 11:17:07;;;;;;;2.30;2.20;;;23.20;99.90;;;;;;4907059;29;20498;-70
2022/06/09 11:19:48;;;;;;;2.83;2.67;;;23.30;99.90;;;;;;4904912;29;20474;-70
2022/06/09 11:22:28;;;;;;;2.83;2.73;;;23.50;99.90;;;;;;4910061;29;20537;-70
2022/06/09 11:25:10;;;;;;;3.40;3.20;;;23.20;99.90;;;;;;4908625;29;20499;-70
2022/06/09 11:27:43;;;;;;;3.37;3.17;;;23.10;99.90;;;;;;4911379;29;20497;-70
2022/06/09 11:30:26;;;;;;;2.60;2.50;;;23.00;99.90;;;;;;4917739;29;20994;-71
2022/06/09 11:33:03;;;;;;;2.90;2.70;;;23.00;99.90;;;;;;4909558;29;20497;-70
2022/06/09 11:35:41;;;;;;;3.43;3.23;;;23.10;99.90;;;;;;4905203;29;21606;-70
2022/06/09 11:38:28;;;;;;;2.70;2.60;;;23.20;99.90;;;;;;4914556;29;20470;-70
2022/06/09 11:41:04;;;;;;;2.80;2.70;;;23.20;99.90;;;;;;4903048;29;20789;-71
2022/06/09 11:43:50;;;;;;;2.63;2.63;;;23.30;99.90;;;;;;4909542;29;20825;-70
2022/06/09 11:46:20;;;;;;;3.40;2.70;;;23.20;99.90;;;;;;4907810;29;20999;-70
2022/06/09 11:48:50;;;;;;;2.60;2.53;;;23.00;99.90;;;;;;4912699;29;20474;-70
2022/06/09 11:51:20;;;;;;;3.23;2.97;;;22.50;99.90;;;;;;4909401;29;20474;-71
2022/06/09 11:53:49;;;;;;;3.53;2.80;;;22.40;99.90;;;;;;4914184;29;20466;-70
2022/06/09 11:56:36;;;;;;;2.40;2.30;;;22.30;99.90;;;;;;4912850;29;20843;-70
2022/06/09 11:59:15;;;;;;;2.73;2.63;;;22.20;99.90;;;;;;4919432;29;20466;-71
2022/06/09 12:01:47;;;;;;;3.20;3.10;;;22.40;99.90;;;;;;4911714;29;20474;-70
2022/06/09 12:04:35;;;;;;;3.00;2.80;;;22.50;99.90;;;;;;4909483;29;20886;-71
2022/06/09 12:07:14;;;;;;;3.07;2.90;;;22.60;99.90;;;;;;4914343;29;20509;-70
2022/06/09 12:09:53;;;;;;;3.20;3.10;;;22.60;99.90;;;;;;4917670;29;20479;-70
2022/06/09 12:12:35;;;;;;;3.00;2.90;;;22.60;99.90;;;;;;4931329;29;20480;-70
2022/06/09 12:15:16;;;;;;;3.10;2.90;;;22.40;99.90;;;;;;4908385;29;20463;-70
2022/06/09 12:18:03;;;;;;;2.60;2.60;;;22.30;99.90;;;;;;4905849;29;20490;-71
2022/06/09 12:20:35;;;;;;;2.63;2.57;;;22.40;99.90;;;;;;4909902;29;20462;-71
2022/06/09 12:23:21;;;;;;;2.40;2.40;;;22.50;99.90;;;;;;4911423;29;20471;-71
2022/06/09 12:26:21;;;;;;;2.40;2.40;;;22.60;99.90;;;;;;4907478;29;20573;-71
2022/06/09 12:29:03;;;;;;;2.50;2.50;;;22.70;99.90;;;;;;4908161;29;20470;-72
2022/06/09 12:31:32;;;;;;;1.80;1.80;;;22.80;99.90;;;;;;4911612;29;20567;-71
2022/06/09 12:34:01;;;;;;;2.60;2.50;;;22.80;99.90;;;;;;4913564;29;20467;-70
2022/06/09 12:36:38;;;;;;;2.70;2.60;;;22.90;99.90;;;;;;4915798;29;21052;-71
2022/06/09 12:39:15;;;;;;;2.70;2.60;;;22.90;99.90;;;;;;4910273;29;20477;-71
2022/06/09 12:41:44;;;;;;;3.10;3.00;;;22.60;99.90;;;;;;4918841;29;20477;-71
2022/06/09 12:44:27;;;;;;;2.63;2.63;;;22.30;99.90;;;;;;4914801;29;20230;-70
2022/06/09 12:46:55;;;;;;;3.07;2.97;;;22.30;99.90;;;;;;4918169;29;20831;-72
2022/06/09 12:49:24;;;;;;;3.07;3.07;;;22.80;99.90;;;;;;4925205;29;20461;-72
2022/06/09 12:51:53;;;;;;;2.40;2.40;;;22.20;99.90;;;;;;4932559;29;20820;-71
2022/06/09 12:54:22;;;;;;;3.00;2.90;;;22.10;99.90;;;;;;4932641;29;20465;-71
2022/06/09 12:56:58;;;;;;;2.67;2.67;;;22.20;99.90;;;;;;4924230;29;20502;-71
2022/06/09 12:59:29;;;;;;;3.03;2.93;;;22.20;99.90;;;;;;4913078;29;20466;-71
2022/06/09 13:02:00;;;;;;;3.30;3.10;;;22.30;99.90;;;;;;4913747;29;20454;-71
2022/06/09 13:04:28;;;;;;;3.10;2.97;;;22.50;99.90;;;;;;4914097;29;20576;-71
2022/06/09 13:06:57;;;;;;;2.40;2.40;;;22.60;99.90;;;;;;4917907;29;20497;-71
2022/06/09 13:09:27;;;;;;;2.80;2.73;;;22.70;99.90;;;;;;4924573;29;20951;-71
2022/06/09 13:14:43;;;;;;;3.70;3.50;;;23.10;99.90;;;;;;4916844;29;20465;-69
2022/06/09 13:17:16;;;;;;;2.93;2.83;;;23.20;99.90;;;;;;4919783;29;21057;-70
2022/06/09 13:19:46;;;;;;;3.50;3.40;;;23.10;99.90;;;;;;4924933;29;20484;-69
2022/06/09 13:22:16;;;;;;;2.70;2.60;;;23.30;99.90;;;;;;4936581;29;20481;-70
2022/06/09 13:24:43;;;;;;;3.40;3.10;;;23.30;99.90;;;;;;4935799;29;20497;-70
2022/06/09 13:27:15;;;;;;;2.90;2.90;;;23.40;99.90;;;;;;4933495;29;20502;-71
2022/06/09 13:30:03;;;;;;;3.20;3.10;;;23.40;99.90;;;;;;4927805;29;20464;-71
2022/06/09 13:32:39;;;;;;;2.47;2.47;;;23.40;99.90;;;;;;4913425;29;20478;-71
2022/06/09 13:35:29;;;;;;;2.60;2.60;;;23.20;99.90;;;;;;4917058;29;20457;-71
2022/06/09 13:38:03;;;;;;;3.87;3.67;;;23.10;99.90;;;;;;4923625;29;20474;-72
2022/06/09 13:40:42;;;;;;;3.63;2.73;;;23.00;99.90;;;;;;4915291;29;20468;-69
2022/06/09 13:43:17;;;;;;;3.20;3.00;;;23.00;99.90;;;;;;4927736;29;20465;-72
2022/06/09 13:45:53;;;;;;;2.60;2.60;;;22.90;99.90;;;;;;4920698;29;20504;-71
2022/06/09 13:48:22;;;;;;;2.93;2.90;;;22.80;99.90;;;;;;4919037;29;20478;-70
2022/06/09 13:51:07;;;;;;;3.10;2.93;;;23.00;99.90;;;;;;4912559;29;20482;-71
2022/06/09 13:53:43;;;;;;;2.23;2.17;;;23.10;99.90;;;;;;4922394;29;20556;-71
2022/06/09 13:56:11;;;;;;;2.20;2.20;;;22.90;99.90;;;;;;4918752;29;20489;-71
2022/06/09 13:58:38;;;;;;;2.33;2.23;;;22.90;99.90;;;;;;4923770;29;20471;-71
2022/06/09 14:01:07;;;;;;;2.20;2.10;;;22.80;99.90;;;;;;4920580;29;20466;-70
2022/06/09 14:03:38;;;;;;;2.50;2.50;;;22.80;99.90;;;;;;4927799;29;20502;-71
2022/06/09 14:06:07;;;;;;;2.40;2.20;;;22.90;99.90;;;;;;4917983;29;20498;-70
2022/06/09 14:08:36;;;;;;;2.43;2.33;;;23.00;99.90;;;;;;4912241;29;20498;-71
2022/06/09 14:11:05;;;;;;;2.33;2.30;;;23.10;99.90;;;;;;4916600;29;20517;-70
2022/06/09 14:13:32;;;;;;;2.90;2.80;;;23.40;99.90;;;;;;4931900;29;20466;-70
2022/06/09 14:15:58;;;;;;;2.17;2.17;;;23.20;99.90;;;;;;4918199;29;20486;-70
2022/06/09 14:18:29;;;;;;;2.50;2.50;;;23.10;99.90;;;;;;4922989;29;20477;-71
2022/06/09 14:20:57;;;;;;;3.47;3.17;;;22.90;99.90;;;;;;4921552;29;20470;-71
2022/06/09 14:23:27;;;;;;;3.13;3.13;;;22.80;99.90;;;;;;4913106;29;20478;-71
2022/06/09 14:25:58;;;;;;;3.50;3.40;;;22.70;99.90;;;;;;4922902;29;20491;-71
2022/06/09 14:28:25;;;;;;;3.47;3.40;;;22.50;99.90;;;;;;4921750;29;20469;-70
2022/06/09 14:30:52;;;;;;;2.90;2.90;;;22.00;99.90;;;;;;4928007;29;20463;-70
2022/06/09 14:33:18;;;;;;;2.57;2.57;;;22.00;99.90;;;;;;4923382;29;20462;-71
2022/06/09 14:35:47;;;;;;;3.50;3.40;;;22.10;99.90;;;;;;4913922;29;20493;-71
2022/06/09 14:38:15;;;;;;;3.10;3.00;;;22.00;99.90;;;;;;4909565;29;20556;-71
2022/06/09 14:40:45;;;;;;;3.73;3.53;;;22.00;99.90;;;;;;4925952;29;20469;-71
2022/06/09 14:43:12;;;;;;;3.10;2.90;;;22.10;99.90;;;;;;4922020;29;20472;-71
2022/06/09 14:45:42;;;;;;;2.83;2.73;;;22.10;99.90;;;;;;4916187;29;20569;-71
2022/06/09 14:48:14;;;;;;;2.70;2.70;;;22.30;99.90;;;;;;4913503;29;20475;-71
2022/06/09 14:50:42;;;;;;;2.87;2.73;;;22.60;99.90;;;;;;4909888;29;20474;-71
2022/06/09 14:53:12;;;;;;;2.23;2.23;;;22.60;99.90;;;;;;4912043;29;20497;-72
2022/06/09 14:55:39;;;;;;;2.50;2.40;;;22.60;99.90;;;;;;4925167;29;20486;-72
2022/06/09 14:58:06;;;;;;;2.23;2.23;;;22.70;99.90;;;;;;4912564;29;20483;-71
2022/06/09 15:00:34;;;;;;;2.83;2.43;;;22.80;99.90;;;;;;4916534;29;20463;-71
2022/06/09 15:03:01;;;;;;;2.57;2.47;;;22.90;99.90;;;;;;4922841;29;20510;-72
2022/06/09 15:05:29;;;;;;;2.03;2.03;;;22.90;99.90;;;;;;4926395;29;20587;-71
2022/06/09 15:07:56;;;;;;;2.17;2.17;;;23.00;99.90;;;;;;4915903;29;21020;-71
2022/06/09 15:10:27;;;;;;;2.80;2.80;;;23.20;99.90;;;;;;4920851;29;20458;-72
2022/06/09 15:12:54;;;;;;;2.23;2.20;;;23.30;99.90;;;;;;4906145;29;20477;-72
2022/06/09 15:15:22;;;;;;;2.67;2.67;;;23.40;99.90;;;;;;4904704;29;20475;-71
2022/06/09 15:17:50;;;;;;;2.20;2.20;;;23.40;99.90;;;;;;4914294;29;20494;-71
2022/06/09 15:20:19;;;;;;;3.00;2.90;;;23.50;99.90;;;;;;4915226;29;20509;-71
2022/06/09 15:22:46;;;;;;;2.50;2.50;;;23.60;99.90;;;;;;4910406;29;20497;-72
2022/06/09 15:25:13;;;;;;;2.27;2.27;;;23.60;99.90;;;;;;4911409;29;21112;-71
2022/06/09 15:27:42;;;;;;;2.70;2.67;;;23.60;99.90;;;;;;4915381;29;20489;-72
2022/06/09 15:30:10;;;;;;;2.10;2.10;;;23.40;99.90;;;;;;4918295;29;20467;-71
2022/06/09 15:32:37;;;;;;;1.87;1.83;;;23.40;99.90;;;;;;4907649;29;20479;-71
2022/06/09 15:35:05;;;;;;;2.47;2.37;;;23.40;99.90;;;;;;4914084;29;20493;-71
2022/06/09 15:37:32;;;;;;;1.87;1.87;;;23.40;99.90;;;;;;4915911;29;20478;-71
2022/06/09 15:39:58;;;;;;;1.77;1.77;;;23.50;99.90;;;;;;4909494;29;20475;-71
2022/06/09 15:42:25;;;;;;;1.50;1.50;;;23.50;99.90;;;;;;4917923;29;20974;-71
2022/06/09 15:44:53;;;;;;;2.10;2.03;;;23.50;99.90;;;;;;4903660;29;20494;-70
2022/06/09 15:47:20;;;;;;;2.20;2.10;;;23.50;99.90;;;;;;4913580;29;20498;-70
2022/06/09 15:49:47;;;;;;;2.23;2.10;;;23.50;99.90;;;;;;4909420;29;20467;-70
2022/06/09 15:52:13;;;;;;;1.90;1.90;;;23.40;99.90;;;;;;4925668;29;20481;-70
2022/06/09 15:54:40;;;;;;;2.33;2.20;;;23.40;99.90;;;;;;4903388;29;20886;-70
2022/06/09 15:57:07;;;;;;;2.00;2.00;;;23.40;99.90;;;;;;4917112;29;20477;-71
2022/06/09 15:59:34;;;;;;;2.20;2.10;;;23.40;99.90;;;;;;4913607;29;20486;-70
2022/06/09 16:02:09;;;;;;;2.20;2.20;;;23.50;99.90;;;;;;4913942;29;20476;-71
2022/06/09 16:04:37;;;;;;;2.73;2.10;;;23.40;99.90;;;;;;4918029;29;20527;-72
2022/06/09 16:07:04;;;;;;;2.33;2.27;;;23.20;99.90;;;;;;4915853;29;21038;-71
2022/06/09 16:09:31;;;;;;;2.00;1.93;;;23.20;99.90;;;;;;4927824;29;21763;-71
2022/06/09 16:11:58;;;;;;;2.00;2.00;;;23.20;99.90;;;;;;4913875;29;20474;-70
2022/06/09 16:14:25;;;;;;;2.70;2.60;;;23.10;99.90;;;;;;4914554;29;20470;-71
2022/06/09 16:16:51;;;;;;;2.20;2.20;;;23.00;99.90;;;;;;4908375;29;20498;-71
2022/06/09 16:19:19;;;;;;;2.40;2.30;;;22.80;99.90;;;;;;4914336;29;20478;-72
2022/06/09 16:21:46;;;;;;;2.37;2.27;;;22.70;99.90;;;;;;4906113;29;20481;-72
2022/06/09 16:24:13;;;;;;;1.90;1.90;;;22.50;99.90;;;;;;4921796;29;20519;-70
2022/06/09 16:26:40;;;;;;;2.57;2.37;;;22.20;99.90;;;;;;4923496;29;20509;-69
2022/06/09 16:29:07;;;;;;;1.90;1.80;;;22.00;99.90;;;;;;4916874;29;20474;-71
2022/06/09 16:31:34;;;;;;;1.97;1.87;;;21.90;99.90;;;;;;4916076;29;20489;-72
2022/06/09 16:34:01;;;;;;;2.07;2.07;;;21.90;99.90;;;;;;4906596;29;20470;-71
2022/06/09 16:36:29;;;;;;;1.47;1.40;;;21.80;99.90;;;;;;4915211;29;20999;-71
2022/06/09 16:38:56;;;;;;;1.90;1.80;;;21.80;99.90;;;;;;4918268;29;20811;-71
2022/06/09 16:41:23;;;;;;;1.50;1.50;;;21.70;99.90;;;;;;4909337;29;20582;-71
2022/06/09 16:43:49;;;;;;;1.90;1.90;;;21.70;99.90;;;;;;4921308;29;20584;-71
2022/06/09 16:46:16;;;;;;;1.70;1.60;;;21.90;99.90;;;;;;4913348;29;20893;-70
2022/06/09 16:48:43;;;;;;;2.20;2.00;;;21.90;99.90;;;;;;4910272;29;20483;-71
2022/06/09 16:51:09;;;;;;;1.33;1.33;;;21.90;99.90;;;;;;4908939;29;20489;-71
2022/06/09 16:53:37;;;;;;;1.40;1.40;;;21.90;99.90;;;;;;4905920;29;20479;-71
2022/06/09 16:56:06;;;;;;;4.60;1.30;;;21.80;99.90;;;;;;4934480;29;20477;-71
2022/06/09 16:58:32;;;;;;;1.53;1.53;;;21.70;99.90;;;;;;4915441;29;20483;-70
2022/06/09 17:01:04;;;;;;;1.37;1.37;;;21.60;99.90;;;;;;4909927;29;21710;-71
2022/06/09 17:03:32;;;;;;;2.43;1.83;;;21.60;99.90;;;;;;4917487;29;20569;-70
2022/06/09 17:06:00;;;;;;;1.10;1.10;;;21.60;99.90;;;;;;4918095;29;20498;-71
2022/06/09 17:08:32;;;;;;;1.27;1.27;;;21.70;99.90;;;;;;4924021;29;20487;-69
2022/06/09 17:11:02;;;;;;;2.83;1.33;;;21.60;99.90;;;;;;4921134;29;20471;-69
2022/06/09 17:13:31;;;;;;;2.67;1.37;;;21.70;99.90;;;;;;4916668;29;20485;-68
2022/06/09 17:15:59;;;;;;;1.53;1.47;;;21.80;99.90;;;;;;4915717;29;20498;-69
2022/06/09 17:18:27;;;;;;;1.33;1.30;;;21.90;99.90;;;;;;4915833;29;20472;-70
2022/06/09 17:20:53;;;;;;;1.23;1.23;;;22.00;99.90;;;;;;4916049;29;20851;-69
2022/06/09 17:23:23;;;;;;;1.40;1.30;;;22.10;99.90;;;;;;4916332;29;20470;-69
2022/06/09 17:25:51;;;;;;;1.40;1.30;;;22.10;99.90;;;;;;4923606;29;20580;-69